sensor_id;sensor_type;location;lat;lon;timestamp;pressure;altitude;pressure_sealevel;temperature;humidity
9035;BME280;4552;43.422;24.592;2023-12-29T00:02:23;100516.69;;;2.58;100.00
9035;BME280;4552;43.422;24.592;2023-12-29T00:04:51;100523.94;;;2.71;100.00
9035;BME280;4552;43.422;24.592;2023-12-29T00:07:21;100519.56;;;2.69;100.00
9035;BME280;4552;43.422;24.592;2023-12-29T00:09:48;100524.28;;;2.85;100.00
9035;BME280;4552;43.422;24.592;2023-12-29T00:12:15;100526.72;;;2.79;100.00
9035;BME280;4552;43.422;24.592;2023-12-29T00:14:42;100522.44;;;2.79;100.00
9035;BME280;4552;43.422;24.592;2023-12-29T00:17:10;100525.97;;;2.52;100.00
9035;BME280;4552;43.422;24.592;2023-12-29T00:19:37;100538.94;;;2.53;100.00
9035;BME280;4552;43.422;24.592;2023-12-29T00:42:15;100552.03;;;2.00;100.00
9035;BME280;4552;43.422;24.592;2023-12-29T00:44:42;100550.84;;;1.91;100.00
9035;BME280;4552;43.422;24.592;2023-12-29T00:47:09;100548.38;;;1.94;100.00
9035;BME280;4552;43.422;24.592;2023-12-29T00:49:38;100547.53;;;1.95;100.00
9035;BME280;4552;43.422;24.592;2023-12-29T01:16:18;100550.78;;;1.61;100.00
9035;BME280;4552;43.422;24.592;2023-12-29T01:18:46;100548.88;;;1.55;100.00
9035;BME280;4552;43.422;24.592;2023-12-29T01:21:13;100545.75;;;1.65;100.00
9035;BME280;4552;43.422;24.592;2023-12-29T01:23:40;100544.59;;;1.56;100.00
9035;BME280;4552;43.422;24.592;2023-12-29T01:26:07;100540.97;;;1.49;100.00
9035;BME280;4552;43.422;24.592;2023-12-29T01:28:34;100516.47;;;1.37;100.00
9035;BME280;4552;43.422;24.592;2023-12-29T01:31:01;100538.66;;;1.58;100.00
9035;BME280;4552;43.422;24.592;2023-12-29T01:33:30;100537.22;;;1.66;100.00
9035;BME280;4552;43.422;24.592;2023-12-29T01:39:34;100541.94;;;1.81;100.00
9035;BME280;4552;43.422;24.592;2023-12-29T01:42:01;100540.53;;;1.91;100.00
9035;BME280;4552;43.422;24.592;2023-12-29T01:44:28;100534.53;;;1.92;100.00
9035;BME280;4552;43.422;24.592;2023-12-29T01:46:58;100535.16;;;1.83;100.00
9035;BME280;4552;43.422;24.592;2023-12-29T01:49:27;100522.09;;;1.78;100.00
9035;BME280;4552;43.422;24.592;2023-12-29T01:51:58;100521.34;;;1.83;100.00
9035;BME280;4552;43.422;24.592;2023-12-29T01:54:29;100526.69;;;1.89;100.00
9035;BME280;4552;43.422;24.592;2023-12-29T01:56:59;100516.06;;;1.78;100.00
9035;BME280;4552;43.422;24.592;2023-12-29T01:59:28;100522.28;;;1.85;100.00
9035;BME280;4552;43.422;24.592;2023-12-29T02:01:56;100511.25;;;1.90;100.00
9035;BME280;4552;43.422;24.592;2023-12-29T02:04:24;100492.97;;;1.83;100.00
9035;BME280;4552;43.422;24.592;2023-12-29T02:06:53;100502.69;;;1.91;100.00
9035;BME280;4552;43.422;24.592;2023-12-29T02:09:21;100499.34;;;1.94;100.00
9035;BME280;4552;43.422;24.592;2023-12-29T02:11:50;100506.34;;;2.27;100.00
9035;BME280;4552;43.422;24.592;2023-12-29T02:14:18;100484.19;;;2.06;100.00
9035;BME280;4552;43.422;24.592;2023-12-29T02:16:52;100506.47;;;2.32;100.00
9035;BME280;4552;43.422;24.592;2023-12-29T02:19:39;100498.94;;;2.39;100.00
9035;BME280;4552;43.422;24.592;2023-12-29T02:59:10;100476.78;;;1.88;100.00
9035;BME280;4552;43.422;24.592;2023-12-29T03:01:37;100448.97;;;1.78;100.00
9035;BME280;4552;43.422;24.592;2023-12-29T03:04:06;100458.75;;;1.90;100.00
9035;BME280;4552;43.422;24.592;2023-12-29T03:06:33;100450.13;;;1.88;100.00
9035;BME280;4552;43.422;24.592;2023-12-29T03:09:00;100468.72;;;2.06;100.00
9035;BME280;4552;43.422;24.592;2023-12-29T03:11:27;100467.09;;;2.09;100.00
9035;BME280;4552;43.422;24.592;2023-12-29T03:13:57;100456.66;;;2.05;100.00
9035;BME280;4552;43.422;24.592;2023-12-29T03:16:26;100439.19;;;1.96;100.00
9035;BME280;4552;43.422;24.592;2023-12-29T03:18:53;100460.09;;;2.05;100.00
9035;BME280;4552;43.422;24.592;2023-12-29T03:32:00;100451.03;;;2.19;100.00
9035;BME280;4552;43.422;24.592;2023-12-29T03:34:27;100437.94;;;2.13;100.00
9035;BME280;4552;43.422;24.592;2023-12-29T03:36:54;100446.78;;;2.21;100.00
9035;BME280;4552;43.422;24.592;2023-12-29T03:39:21;100430.97;;;2.09;100.00
9035;BME280;4552;43.422;24.592;2023-12-29T03:41:49;100445.03;;;2.20;100.00
9035;BME280;4552;43.422;24.592;2023-12-29T03:44:16;100433.91;;;2.23;100.00
9035;BME280;4552;43.422;24.592;2023-12-29T03:46:43;100442.28;;;2.45;100.00
9035;BME280;4552;43.422;24.592;2023-12-29T03:49:16;100435.63;;;2.53;100.00
9035;BME280;4552;43.422;24.592;2023-12-29T03:51:43;100438.06;;;2.49;100.00
9035;BME280;4552;43.422;24.592;2023-12-29T03:54:10;100414.41;;;2.32;100.00
9035;BME280;4552;43.422;24.592;2023-12-29T03:56:37;100436.38;;;2.51;100.00
9035;BME280;4552;43.422;24.592;2023-12-29T03:59:04;100434.59;;;2.48;100.00
9035;BME280;4552;43.422;24.592;2023-12-29T04:01:33;100440.50;;;2.43;100.00
9035;BME280;4552;43.422;24.592;2023-12-29T04:04:00;100427.66;;;2.46;100.00
9035;BME280;4552;43.422;24.592;2023-12-29T04:06:29;100437.91;;;2.43;100.00
9035;BME280;4552;43.422;24.592;2023-12-29T04:08:57;100428.44;;;2.43;100.00
9035;BME280;4552;43.422;24.592;2023-12-29T04:11:24;100420.97;;;2.54;100.00
9035;BME280;4552;43.422;24.592;2023-12-29T04:13:54;100424.16;;;2.76;100.00
9035;BME280;4552;43.422;24.592;2023-12-29T04:16:21;100413.66;;;2.70;100.00
9035;BME280;4552;43.422;24.592;2023-12-29T04:18:48;100424.31;;;2.82;100.00
9035;BME280;4552;43.422;24.592;2023-12-29T04:21:15;100424.22;;;2.79;100.00
9035;BME280;4552;43.422;24.592;2023-12-29T04:23:44;100409.44;;;2.74;100.00
9035;BME280;4552;43.422;24.592;2023-12-29T04:26:11;100416.84;;;2.60;100.00
9035;BME280;4552;43.422;24.592;2023-12-29T04:28:37;100429.06;;;2.66;100.00
9035;BME280;4552;43.422;24.592;2023-12-29T04:31:04;100420.72;;;2.77;100.00
9035;BME280;4552;43.422;24.592;2023-12-29T04:33:31;100414.94;;;2.87;100.00
9035;BME280;4552;43.422;24.592;2023-12-29T04:42:44;100422.88;;;2.93;100.00
9035;BME280;4552;43.422;24.592;2023-12-29T04:45:11;100422.34;;;3.08;100.00
9035;BME280;4552;43.422;24.592;2023-12-29T04:47:38;100424.91;;;3.06;100.00
9035;BME280;4552;43.422;24.592;2023-12-29T04:50:07;100409.13;;;2.96;100.00
9035;BME280;4552;43.422;24.592;2023-12-29T04:52:34;100413.38;;;2.94;100.00
9035;BME280;4552;43.422;24.592;2023-12-29T04:55:01;100429.31;;;3.12;100.00
9035;BME280;4552;43.422;24.592;2023-12-29T04:57:28;100428.28;;;3.04;100.00
9035;BME280;4552;43.422;24.592;2023-12-29T04:59:58;100431.66;;;3.01;100.00
9035;BME280;4552;43.422;24.592;2023-12-29T05:02:25;100438.44;;;2.96;100.00
9035;BME280;4552;43.422;24.592;2023-12-29T05:04:52;100401.88;;;2.81;100.00
9035;BME280;4552;43.422;24.592;2023-12-29T05:34:34;100435.53;;;2.84;100.00
9035;BME280;4552;43.422;24.592;2023-12-29T05:37:01;100433.03;;;2.87;100.00
9035;BME280;4552;43.422;24.592;2023-12-29T05:39:29;100432.66;;;2.72;100.00
9035;BME280;4552;43.422;24.592;2023-12-29T05:41:56;100430.59;;;2.59;100.00
9035;BME280;4552;43.422;24.592;2023-12-29T05:44:23;100440.78;;;2.53;100.00
9035;BME280;4552;43.422;24.592;2023-12-29T05:46:50;100449.09;;;2.43;100.00
9035;BME280;4552;43.422;24.592;2023-12-29T05:49:17;100431.78;;;2.39;100.00
9035;BME280;4552;43.422;24.592;2023-12-29T05:51:46;100444.56;;;2.35;100.00
9035;BME280;4552;43.422;24.592;2023-12-29T05:54:13;100424.97;;;2.41;100.00
9035;BME280;4552;43.422;24.592;2023-12-29T05:56:40;100438.13;;;2.19;100.00
9035;BME280;4552;43.422;24.592;2023-12-29T05:59:07;100455.66;;;2.63;100.00
9035;BME280;4552;43.422;24.592;2023-12-29T06:01:34;100435.44;;;2.47;100.00
9035;BME280;4552;43.422;24.592;2023-12-29T06:04:01;100446.19;;;2.62;100.00
9035;BME280;4552;43.422;24.592;2023-12-29T06:16:42;100451.00;;;2.49;100.00
9035;BME280;4552;43.422;24.592;2023-12-29T06:19:09;100445.13;;;2.56;100.00
9035;BME280;4552;43.422;24.592;2023-12-29T06:21:41;100441.22;;;2.70;100.00
9035;BME280;4552;43.422;24.592;2023-12-29T06:24:08;100459.59;;;2.82;100.00
9035;BME280;4552;43.422;24.592;2023-12-29T06:26:49;100455.78;;;2.68;100.00
9035;BME280;4552;43.422;24.592;2023-12-29T06:29:16;100456.88;;;3.10;100.00
9035;BME280;4552;43.422;24.592;2023-12-29T06:31:45;100451.63;;;3.07;100.00
9035;BME280;4552;43.422;24.592;2023-12-29T06:34:12;100445.06;;;2.85;100.00
9035;BME280;4552;43.422;24.592;2023-12-29T06:36:40;100457.63;;;3.06;100.00
9035;BME280;4552;43.422;24.592;2023-12-29T06:39:07;100455.59;;;3.28;100.00
9035;BME280;4552;43.422;24.592;2023-12-29T06:41:34;100435.13;;;3.02;100.00
9035;BME280;4552;43.422;24.592;2023-12-29T06:44:01;100455.78;;;3.00;100.00
9035;BME280;4552;43.422;24.592;2023-12-29T06:46:28;100461.28;;;3.14;100.00
9035;BME280;4552;43.422;24.592;2023-12-29T06:48:56;100448.69;;;3.29;100.00
9035;BME280;4552;43.422;24.592;2023-12-29T06:51:24;100453.31;;;3.40;100.00
9035;BME280;4552;43.422;24.592;2023-12-29T06:53:51;100456.78;;;3.81;100.00
9035;BME280;4552;43.422;24.592;2023-12-29T06:56:18;100453.94;;;4.09;100.00
9035;BME280;4552;43.422;24.592;2023-12-29T06:58:45;100443.06;;;4.27;100.00
9035;BME280;4552;43.422;24.592;2023-12-29T07:01:13;100463.34;;;4.47;100.00
9035;BME280;4552;43.422;24.592;2023-12-29T07:03:41;100469.06;;;4.76;100.00
9035;BME280;4552;43.422;24.592;2023-12-29T07:06:10;100473.22;;;4.68;100.00
9035;BME280;4552;43.422;24.592;2023-12-29T07:08:37;100437.44;;;4.47;100.00
9035;BME280;4552;43.422;24.592;2023-12-29T07:11:04;100468.94;;;4.70;100.00
9035;BME280;4552;43.422;24.592;2023-12-29T07:13:31;100455.16;;;4.72;100.00
9035;BME280;4552;43.422;24.592;2023-12-29T07:15:58;100459.84;;;4.93;100.00
9035;BME280;4552;43.422;24.592;2023-12-29T07:18:25;100455.94;;;5.17;100.00
9035;BME280;4552;43.422;24.592;2023-12-29T07:47:48;100472.09;;;6.92;99.52
9035;BME280;4552;43.422;24.592;2023-12-29T08:26:46;100513.00;;;10.78;77.97
9035;BME280;4552;43.422;24.592;2023-12-29T08:29:14;100512.78;;;11.10;77.10
9035;BME280;4552;43.422;24.592;2023-12-29T08:31:41;100511.78;;;11.32;74.23
9035;BME280;4552;43.422;24.592;2023-12-29T08:34:08;100508.19;;;11.42;70.45
9035;BME280;4552;43.422;24.592;2023-12-29T08:36:35;100504.56;;;11.61;70.71
9035;BME280;4552;43.422;24.592;2023-12-29T08:39:03;100514.13;;;11.68;68.85
9035;BME280;4552;43.422;24.592;2023-12-29T08:41:30;100512.28;;;11.77;68.17
9035;BME280;4552;43.422;24.592;2023-12-29T08:43:58;100517.41;;;11.91;67.68
9035;BME280;4552;43.422;24.592;2023-12-29T08:46:25;100522.63;;;11.92;67.33
9035;BME280;4552;43.422;24.592;2023-12-29T08:48:53;100512.19;;;11.89;67.21
9035;BME280;4552;43.422;24.592;2023-12-29T08:51:20;100524.31;;;12.01;66.78
9035;BME280;4552;43.422;24.592;2023-12-29T08:53:47;100523.34;;;12.08;65.80
9035;BME280;4552;43.422;24.592;2023-12-29T08:56:14;100516.41;;;12.04;66.23
9035;BME280;4552;43.422;24.592;2023-12-29T08:58:41;100518.09;;;12.08;66.16
9035;BME280;4552;43.422;24.592;2023-12-29T09:01:09;100525.00;;;12.19;66.30
9035;BME280;4552;43.422;24.592;2023-12-29T09:03:36;100509.34;;;12.07;66.02
9035;BME280;4552;43.422;24.592;2023-12-29T09:06:04;100508.53;;;12.04;65.93
9035;BME280;4552;43.422;24.592;2023-12-29T09:08:34;100524.00;;;12.28;66.85
9035;BME280;4552;43.422;24.592;2023-12-29T09:11:01;100520.47;;;12.31;66.49
9035;BME280;4552;43.422;24.592;2023-12-29T09:13:28;100495.22;;;12.22;66.19
9035;BME280;4552;43.422;24.592;2023-12-29T09:15:56;100517.03;;;12.29;66.20
9035;BME280;4552;43.422;24.592;2023-12-29T09:18:24;100516.19;;;12.25;66.91
9035;BME280;4552;43.422;24.592;2023-12-29T09:20:51;100519.53;;;12.39;66.92
9035;BME280;4552;43.422;24.592;2023-12-29T09:23:20;100499.50;;;12.29;66.68
9035;BME280;4552;43.422;24.592;2023-12-29T09:25:48;100502.13;;;12.29;66.82
9035;BME280;4552;43.422;24.592;2023-12-29T09:28:15;100493.34;;;12.33;66.67
9035;BME280;4552;43.422;24.592;2023-12-29T09:30:43;100504.53;;;12.46;66.13
9035;BME280;4552;43.422;24.592;2023-12-29T09:33:53;100489.75;;;12.39;66.68
9035;BME280;4552;43.422;24.592;2023-12-29T09:49:08;100492.47;;;12.98;64.42
9035;BME280;4552;43.422;24.592;2023-12-29T11:02:29;100390.81;;;14.40;58.58
9035;BME280;4552;43.422;24.592;2023-12-29T11:05:10;100390.63;;;14.49;58.19
9035;BME280;4552;43.422;24.592;2023-12-29T11:27:58;100366.53;;;14.65;57.15
9035;BME280;4552;43.422;24.592;2023-12-29T11:30:30;100344.63;;;14.63;56.16
9035;BME280;4552;43.422;24.592;2023-12-29T11:33:02;100356.66;;;14.73;55.75
9035;BME280;4552;43.422;24.592;2023-12-29T11:35:39;100338.75;;;14.51;56.19
9035;BME280;4552;43.422;24.592;2023-12-29T11:38:26;100356.03;;;14.64;56.00
9035;BME280;4552;43.422;24.592;2023-12-29T11:41:02;100356.09;;;14.61;56.43
9035;BME280;4552;43.422;24.592;2023-12-29T11:43:33;100348.25;;;14.59;56.77
9035;BME280;4552;43.422;24.592;2023-12-29T11:46:01;100356.53;;;14.79;56.78
9035;BME280;4552;43.422;24.592;2023-12-29T11:48:53;100353.00;;;14.80;56.03
9035;BME280;4552;43.422;24.592;2023-12-29T12:05:01;100352.41;;;15.03;55.24
9035;BME280;4552;43.422;24.592;2023-12-29T12:08:02;100339.41;;;14.97;54.85
9035;BME280;4552;43.422;24.592;2023-12-29T12:10:37;100338.25;;;15.07;55.04
9035;BME280;4552;43.422;24.592;2023-12-29T12:13:06;100344.34;;;15.09;54.82
9035;BME280;4552;43.422;24.592;2023-12-29T12:15:39;100329.09;;;15.21;54.28
9035;BME280;4552;43.422;24.592;2023-12-29T12:18:11;100326.56;;;15.17;53.36
9035;BME280;4552;43.422;24.592;2023-12-29T12:20:40;100323.06;;;15.16;52.96
9035;BME280;4552;43.422;24.592;2023-12-29T12:23:11;100320.88;;;15.32;53.09
9035;BME280;4552;43.422;24.592;2023-12-29T12:25:39;100326.03;;;15.38;52.67
9035;BME280;4552;43.422;24.592;2023-12-29T12:28:11;100327.69;;;15.42;52.45
9035;BME280;4552;43.422;24.592;2023-12-29T12:30:43;100331.81;;;15.52;51.89
9035;BME280;4552;43.422;24.592;2023-12-29T12:33:14;100330.41;;;15.39;52.62
9035;BME280;4552;43.422;24.592;2023-12-29T12:35:43;100326.91;;;15.38;52.24
9035;BME280;4552;43.422;24.592;2023-12-29T12:38:13;100315.88;;;15.23;51.63
9035;BME280;4552;43.422;24.592;2023-12-29T12:40:46;100327.16;;;15.28;52.04
9035;BME280;4552;43.422;24.592;2023-12-29T12:43:14;100309.91;;;15.15;52.08
9035;BME280;4552;43.422;24.592;2023-12-29T12:45:47;100327.69;;;15.42;52.21
9035;BME280;4552;43.422;24.592;2023-12-29T12:48:20;100306.94;;;15.27;51.96
9035;BME280;4552;43.422;24.592;2023-12-29T12:50:53;100303.22;;;15.03;52.57
9035;BME280;4552;43.422;24.592;2023-12-29T13:20:19;100324.41;;;14.99;53.53
9035;BME280;4552;43.422;24.592;2023-12-29T13:22:46;100322.53;;;15.02;53.34
9035;BME280;4552;43.422;24.592;2023-12-29T13:25:18;100316.59;;;14.96;53.33
9035;BME280;4552;43.422;24.592;2023-12-29T13:27:48;100312.31;;;14.90;53.68
9035;BME280;4552;43.422;24.592;2023-12-29T13:30:16;100306.44;;;14.81;53.82
9035;BME280;4552;43.422;24.592;2023-12-29T13:32:49;100322.66;;;14.98;54.28
9035;BME280;4552;43.422;24.592;2023-12-29T13:35:22;100321.94;;;14.93;53.91
9035;BME280;4552;43.422;24.592;2023-12-29T14:45:40;100320.88;;;13.43;60.50
9035;BME280;4552;43.422;24.592;2023-12-29T14:48:07;100328.00;;;13.36;61.02
9035;BME280;4552;43.422;24.592;2023-12-29T14:50:34;100316.09;;;13.17;60.89
9035;BME280;4552;43.422;24.592;2023-12-29T15:34:04;100340.34;;;12.23;65.92
9035;BME280;4552;43.422;24.592;2023-12-29T16:10:11;100354.13;;;11.71;70.40
9035;BME280;4552;43.422;24.592;2023-12-29T16:12:38;100336.72;;;11.67;70.29
9035;BME280;4552;43.422;24.592;2023-12-29T16:15:06;100355.66;;;11.90;68.98
9035;BME280;4552;43.422;24.592;2023-12-29T16:17:35;100358.31;;;11.88;69.36
9035;BME280;4552;43.422;24.592;2023-12-29T16:20:03;100356.56;;;11.90;68.50
9035;BME280;4552;43.422;24.592;2023-12-29T16:22:30;100359.03;;;12.01;67.80
9035;BME280;4552;43.422;24.592;2023-12-29T16:24:57;100332.91;;;11.93;68.28
9035;BME280;4552;43.422;24.592;2023-12-29T16:27:26;100352.09;;;11.94;67.95
9035;BME280;4552;43.422;24.592;2023-12-29T16:29:53;100359.94;;;11.97;67.44
9035;BME280;4552;43.422;24.592;2023-12-29T16:32:21;100352.22;;;11.85;68.21
9035;BME280;4552;43.422;24.592;2023-12-29T16:34:50;100347.63;;;12.03;66.66
9035;BME280;4552;43.422;24.592;2023-12-29T16:37:16;100351.22;;;11.96;68.33
9035;BME280;4552;43.422;24.592;2023-12-29T16:39:44;100350.47;;;11.87;67.76
9035;BME280;4552;43.422;24.592;2023-12-29T16:42:11;100353.03;;;11.91;67.76
9035;BME280;4552;43.422;24.592;2023-12-29T16:44:42;100345.25;;;11.84;68.05
9035;BME280;4552;43.422;24.592;2023-12-29T16:47:09;100351.47;;;11.74;68.08
9035;BME280;4552;43.422;24.592;2023-12-29T16:49:36;100336.63;;;11.74;67.82
9035;BME280;4552;43.422;24.592;2023-12-29T16:58:47;100366.16;;;11.90;66.75
9035;BME280;4552;43.422;24.592;2023-12-29T17:01:19;100369.78;;;11.77;67.52
9035;BME280;4552;43.422;24.592;2023-12-29T17:03:48;100359.44;;;11.66;67.80
9035;BME280;4552;43.422;24.592;2023-12-29T17:06:27;100377.69;;;11.74;67.88
9035;BME280;4552;43.422;24.592;2023-12-29T17:08:57;100361.25;;;11.63;68.00
9035;BME280;4552;43.422;24.592;2023-12-29T17:11:24;100354.25;;;11.59;67.77
9035;BME280;4552;43.422;24.592;2023-12-29T17:13:52;100374.34;;;11.61;68.05
9035;BME280;4552;43.422;24.592;2023-12-29T17:16:21;100363.91;;;11.54;67.88
9035;BME280;4552;43.422;24.592;2023-12-29T17:19:00;100350.03;;;11.46;68.04
9035;BME280;4552;43.422;24.592;2023-12-29T17:51:56;100367.81;;;11.15;67.97
9035;BME280;4552;43.422;24.592;2023-12-29T17:54:24;100352.91;;;11.20;68.25
9035;BME280;4552;43.422;24.592;2023-12-29T17:56:51;100352.94;;;11.16;68.97
9035;BME280;4552;43.422;24.592;2023-12-29T17:59:19;100360.00;;;11.11;69.06
9035;BME280;4552;43.422;24.592;2023-12-29T18:01:48;100359.59;;;11.50;67.29
9035;BME280;4552;43.422;24.592;2023-12-29T18:04:15;100358.19;;;11.16;67.80
9035;BME280;4552;43.422;24.592;2023-12-29T19:51:02;100387.88;;;9.68;79.13
9035;BME280;4552;43.422;24.592;2023-12-29T19:53:29;100392.25;;;9.57;79.47
9035;BME280;4552;43.422;24.592;2023-12-29T19:55:56;100376.56;;;9.54;79.33
9035;BME280;4552;43.422;24.592;2023-12-29T19:58:24;100387.00;;;9.66;79.11
9035;BME280;4552;43.422;24.592;2023-12-29T20:00:52;100392.25;;;9.57;79.29
9035;BME280;4552;43.422;24.592;2023-12-29T20:03:19;100385.28;;;9.62;79.68
9035;BME280;4552;43.422;24.592;2023-12-29T20:05:46;100388.72;;;9.75;78.90
9035;BME280;4552;43.422;24.592;2023-12-29T20:08:15;100367.81;;;9.73;77.57
9035;BME280;4552;43.422;24.592;2023-12-29T20:10:43;100366.91;;;9.82;77.15
9035;BME280;4552;43.422;24.592;2023-12-29T20:13:11;100389.50;;;10.04;76.24
9035;BME280;4552;43.422;24.592;2023-12-29T20:15:38;100370.28;;;10.06;75.72
9035;BME280;4552;43.422;24.592;2023-12-29T20:18:05;100377.22;;;10.15;75.26
9035;BME280;4552;43.422;24.592;2023-12-29T20:20:32;100377.22;;;10.19;74.87
9035;BME280;4552;43.422;24.592;2023-12-29T20:22:59;100374.56;;;10.25;73.68
9035;BME280;4552;43.422;24.592;2023-12-29T20:25:28;100379.78;;;10.25;73.68
9035;BME280;4552;43.422;24.592;2023-12-29T20:27:55;100360.69;;;10.14;73.78
9035;BME280;4552;43.422;24.592;2023-12-29T20:30:22;100382.41;;;10.33;73.42
9035;BME280;4552;43.422;24.592;2023-12-29T20:32:49;100380.66;;;10.29;73.19
9035;BME280;4552;43.422;24.592;2023-12-29T20:35:18;100366.72;;;10.25;73.01
9035;BME280;4552;43.422;24.592;2023-12-29T20:37:46;100383.34;;;10.18;72.92
9035;BME280;4552;43.422;24.592;2023-12-29T20:40:14;100377.28;;;10.01;72.93
9035;BME280;4552;43.422;24.592;2023-12-29T20:45:53;100380.91;;;9.66;75.22
9035;BME280;4552;43.422;24.592;2023-12-29T20:51:12;100374.88;;;9.41;76.27
9035;BME280;4552;43.422;24.592;2023-12-29T21:03:50;100369.69;;;8.99;78.51
9035;BME280;4552;43.422;24.592;2023-12-29T21:06:18;100348.81;;;8.90;78.46
9035;BME280;4552;43.422;24.592;2023-12-29T21:08:47;100347.94;;;8.73;80.24
9035;BME280;4552;43.422;24.592;2023-12-29T21:11:18;100364.47;;;8.93;79.94
9035;BME280;4552;43.422;24.592;2023-12-29T21:13:47;100347.94;;;8.70;79.30
9035;BME280;4552;43.422;24.592;2023-12-29T21:16:14;100359.25;;;8.48;80.71
9035;BME280;4552;43.422;24.592;2023-12-29T21:18:45;100337.47;;;8.31;81.18
9035;BME280;4552;43.422;24.592;2023-12-29T21:21:15;100342.59;;;8.02;81.38
9035;BME280;4552;43.422;24.592;2023-12-29T21:23:43;100359.16;;;8.24;84.23
9035;BME280;4552;43.422;24.592;2023-12-29T21:26:17;100343.53;;;8.30;83.69
9035;BME280;4552;43.422;24.592;2023-12-29T21:28:45;100350.53;;;8.43;84.20
9035;BME280;4552;43.422;24.592;2023-12-29T21:31:14;100338.31;;;8.27;83.35
9035;BME280;4552;43.422;24.592;2023-12-29T21:33:48;100333.91;;;8.12;83.16
9035;BME280;4552;43.422;24.592;2023-12-29T21:36:24;100329.47;;;7.83;83.67
9035;BME280;4552;43.422;24.592;2023-12-29T21:45:38;100332.06;;;7.80;86.45
9035;BME280;4552;43.422;24.592;2023-12-29T21:48:05;100332.09;;;7.84;87.01
9035;BME280;4552;43.422;24.592;2023-12-29T21:50:33;100330.31;;;7.68;87.15
9035;BME280;4552;43.422;24.592;2023-12-29T21:53:02;100325.84;;;7.48;86.68
9035;BME280;4552;43.422;24.592;2023-12-29T21:55:29;100323.22;;;7.43;88.20
9035;BME280;4552;43.422;24.592;2023-12-29T21:57:56;100331.06;;;7.48;88.73
9035;BME280;4552;43.422;24.592;2023-12-29T22:00:26;100320.63;;;7.46;88.64
9035;BME280;4552;43.422;24.592;2023-12-29T22:02:53;100313.63;;;7.29;88.77
9035;BME280;4552;43.422;24.592;2023-12-29T22:05:23;100317.91;;;7.24;87.88
9035;BME280;4552;43.422;24.592;2023-12-29T22:34:46;100298.66;;;6.94;89.68
9035;BME280;4552;43.422;24.592;2023-12-29T23:00:57;100252.94;;;7.45;89.99
9035;BME280;4552;43.422;24.592;2023-12-29T23:03:25;100244.28;;;7.49;90.19
9035;BME280;4552;43.422;24.592;2023-12-29T23:05:57;100247.78;;;7.66;91.80
9035;BME280;4552;43.422;24.592;2023-12-29T23:17:39;100242.63;;;7.72;89.68
9035;BME280;4552;43.422;24.592;2023-12-29T23:20:07;100233.88;;;7.55;89.60
9035;BME280;4552;43.422;24.592;2023-12-29T23:32:41;100237.25;;;7.31;91.48
9035;BME280;4552;43.422;24.592;2023-12-29T23:35:09;100229.50;;;7.45;91.51
9035;BME280;4552;43.422;24.592;2023-12-29T23:44:21;100228.53;;;7.25;90.68
9035;BME280;4552;43.422;24.592;2023-12-29T23:46:48;100230.31;;;7.26;91.36
9035;BME280;4552;43.422;24.592;2023-12-29T23:49:16;100229.44;;;7.28;90.34
9035;BME280;4552;43.422;24.592;2023-12-29T23:51:43;100200.72;;;7.05;90.08
9035;BME280;4552;43.422;24.592;2023-12-29T23:54:10;100228.53;;;7.22;90.39
9035;BME280;4552;43.422;24.592;2023-12-29T23:56:38;100218.00;;;6.97;90.01
9035;BME280;4552;43.422;24.592;2023-12-29T23:59:05;100204.94;;;6.84;90.34
